createdAt,value
2019-03-11T00:01:59.839Z,95.70
2019-03-11T00:06:04.833Z,95.80
2019-03-11T00:10:09.898Z,96.10
2019-03-11T00:14:14.881Z,96.40
2019-03-11T00:18:19.926Z,96.80
2019-03-11T00:22:24.841Z,97.10
2019-03-11T00:26:29.831Z,97.60
2019-03-11T00:30:34.809Z,97.90
2019-03-11T00:34:39.798Z,98.40
2019-03-11T00:38:46.445Z,98.70
2019-03-11T00:42:51.442Z,99.00
2019-03-11T00:46:56.458Z,99.20
2019-03-11T00:51:01.438Z,99.40
2019-03-11T00:55:09.011Z,99.20
2019-03-11T00:59:14.124Z,99.00
2019-03-11T01:03:19.092Z,98.80
2019-03-11T01:07:24.077Z,98.20
2019-03-11T01:11:29.134Z,97.60
2019-03-11T01:15:34.370Z,97.30
2019-03-11T01:19:39.387Z,97.30
2019-03-11T01:23:44.358Z,97.10
2019-03-11T01:27:49.340Z,97.10
2019-03-11T01:31:54.318Z,96.80
2019-03-11T01:35:59.303Z,96.70
2019-03-11T01:40:14.881Z,96.70
2019-03-11T01:44:19.872Z,96.40
2019-03-11T01:48:24.926Z,96.40
2019-03-11T01:52:29.926Z,96.60
2019-03-11T01:56:34.926Z,96.70
2019-03-11T02:00:39.984Z,95.90
2019-03-11T02:04:44.989Z,95.30
2019-03-11T02:08:49.982Z,94.80
2019-03-11T02:12:54.966Z,94.50
2019-03-11T02:16:59.949Z,94.60
2019-03-11T02:21:06.010Z,94.50
2019-03-11T02:25:11.229Z,94.60
2019-03-11T02:29:16.210Z,94.10
2019-03-11T02:33:21.223Z,93.80
2019-03-11T02:37:26.678Z,93.40
2019-03-11T02:41:31.685Z,93.00
2019-03-11T02:45:37.741Z,92.60
2019-03-11T02:49:44.067Z,92.30
2019-03-11T02:53:49.371Z,91.80
2019-03-11T02:57:54.422Z,91.50
2019-03-11T03:02:17.577Z,91.30
2019-03-11T03:06:22.699Z,91.50
2019-03-11T03:10:27.705Z,92.00
2019-03-11T03:14:32.734Z,91.80
2019-03-11T03:18:37.752Z,91.70
2019-03-11T03:22:42.832Z,91.30
2019-03-11T03:26:47.890Z,91.10
2019-03-11T03:30:52.901Z,91.10
2019-03-11T03:34:57.879Z,90.90
2019-03-11T03:39:02.830Z,91.10
2019-03-11T03:43:09.440Z,91.00
2019-03-11T03:47:14.522Z,90.90
2019-03-11T03:51:19.509Z,91.10
2019-03-11T03:55:24.486Z,91.40
2019-03-11T03:59:29.506Z,91.70
2019-03-11T04:03:34.482Z,92.00
2019-03-11T04:07:39.478Z,92.30
2019-03-11T04:11:44.484Z,92.60
2019-03-11T04:15:49.643Z,93.10
2019-03-11T04:19:54.630Z,93.10
2019-03-11T04:24:00.675Z,93.20
2019-03-11T04:28:05.794Z,93.50
2019-03-11T04:32:10.802Z,93.60
2019-03-11T04:36:15.786Z,93.20
2019-03-11T04:40:20.947Z,93.10
2019-03-11T04:44:25.909Z,93.10
2019-03-11T04:48:30.893Z,92.90
2019-03-11T04:52:36.022Z,92.90
2019-03-11T04:56:41.054Z,92.90
2019-03-11T05:00:46.098Z,92.60
2019-03-11T05:04:51.378Z,92.10
2019-03-11T05:08:56.374Z,92.10
2019-03-11T05:13:01.400Z,92.10
2019-03-11T05:17:06.453Z,92.10
2019-03-11T05:21:11.454Z,92.00
2019-03-11T05:25:17.585Z,91.90
2019-03-11T05:29:22.552Z,91.80
2019-03-11T05:33:27.538Z,91.80
2019-03-11T05:37:33.326Z,91.80
2019-03-11T05:41:38.290Z,92.00
2019-03-11T05:45:43.283Z,91.70
2019-03-11T05:49:48.258Z,91.80
2019-03-11T05:53:53.240Z,91.60
2019-03-11T05:57:58.359Z,91.30
2019-03-11T06:02:03.419Z,91.40
2019-03-11T06:06:08.413Z,91.50
2019-03-11T06:10:14.877Z,92.00
2019-03-11T06:14:19.832Z,92.40
2019-03-11T06:18:35.852Z,92.90
2019-03-11T06:22:40.873Z,93.50
2019-03-11T06:26:45.935Z,94.10
2019-03-11T06:30:50.931Z,94.90
2019-03-11T06:34:55.917Z,95.50
2019-03-11T06:39:05.683Z,96.00
2019-03-11T06:43:08.861Z,96.40
2019-03-11T06:47:13.875Z,96.60
2019-03-11T06:51:18.862Z,96.80
2019-03-11T06:55:23.838Z,97.70
2019-03-11T06:59:28.825Z,97.90
2019-03-11T07:03:33.874Z,98.90
2019-03-11T07:07:38.866Z,98.60
2019-03-11T07:11:43.861Z,98.70
2019-03-11T07:15:48.859Z,98.70
2019-03-11T07:19:53.817Z,98.50
2019-03-11T07:23:58.811Z,98.40
2019-03-11T07:28:03.789Z,98.40
2019-03-11T07:32:08.821Z,98.50
2019-03-11T07:36:13.817Z,98.30
2019-03-11T07:40:29.313Z,97.80
2019-03-11T07:44:25.498Z,97.60
2019-03-11T07:48:30.503Z,96.70
2019-03-11T07:52:35.560Z,97.00
2019-03-11T07:56:40.542Z,96.30
2019-03-11T08:00:53.465Z,96.10
2019-03-11T08:04:52.550Z,91.20
2019-03-11T08:08:57.788Z,65.90
2019-03-11T08:13:03.109Z,52.30
2019-03-11T08:17:08.399Z,54.20
2019-03-11T08:21:13.613Z,64.60
2019-03-11T08:25:19.995Z,73.30
2019-03-11T08:29:25.254Z,77.20
2019-03-11T08:33:30.594Z,78.00
2019-03-11T08:37:35.878Z,77.70
2019-03-11T08:41:41.121Z,79.70
2019-03-11T08:45:46.361Z,80.90
2019-03-11T08:49:51.632Z,81.10
2019-03-11T08:53:56.644Z,81.50
2019-03-11T08:58:01.897Z,80.30
2019-03-11T09:02:06.883Z,81.80
2019-03-11T09:06:11.854Z,81.90
2019-03-11T09:10:18.249Z,81.20
2019-03-11T09:14:23.514Z,78.00
2019-03-11T09:18:28.810Z,74.00
2019-03-11T09:22:34.201Z,73.10
2019-03-11T09:26:39.394Z,74.40
2019-03-11T09:30:44.694Z,74.70
2019-03-11T09:34:49.946Z,70.00
2019-03-11T09:38:55.212Z,54.60
2019-03-11T09:43:00.489Z,52.90
2019-03-11T09:47:06.082Z,55.90
2019-03-11T09:51:11.326Z,60.70
2019-03-11T09:55:21.426Z,63.90
2019-03-11T09:59:26.698Z,63.30
2019-03-11T10:03:31.990Z,67.00
2019-03-11T10:07:37.245Z,69.50
2019-03-11T10:11:42.492Z,68.90
2019-03-11T10:15:47.754Z,70.40
2019-03-11T10:19:53.026Z,76.20
2019-03-11T10:23:59.253Z,78.90
2019-03-11T10:28:04.976Z,64.70
2019-03-11T10:32:10.208Z,52.00
2019-03-11T10:36:15.474Z,47.40
2019-03-11T10:40:23.886Z,52.50
2019-03-11T10:44:29.179Z,55.80
2019-03-11T10:48:37.370Z,59.70
2019-03-11T10:52:41.353Z,63.20
2019-03-11T10:56:46.570Z,71.50
2019-03-11T11:00:51.897Z,69.60
2019-03-11T11:04:57.237Z,61.70
2019-03-11T11:09:02.246Z,61.20
2019-03-11T11:13:09.118Z,65.70
2019-03-11T11:17:15.951Z,69.40
2019-03-11T11:21:20.940Z,70.50
2019-03-11T11:25:27.262Z,71.70
2019-03-11T11:29:32.246Z,76.80
2019-03-11T11:33:37.537Z,83.10
2019-03-11T11:37:42.497Z,84.20
2019-03-11T11:41:47.529Z,83.70
2019-03-11T11:45:52.489Z,82.80
2019-03-11T11:49:57.929Z,82.80
2019-03-11T11:54:03.345Z,71.10
2019-03-11T11:58:08.598Z,60.50
2019-03-11T12:02:13.912Z,54.70
2019-03-11T12:06:19.199Z,51.80
2019-03-11T12:10:28.487Z,51.90
2019-03-11T12:14:33.769Z,49.80
2019-03-11T12:18:38.992Z,50.60
2019-03-11T12:22:45.298Z,51.70
2019-03-11T12:26:50.574Z,52.70
2019-03-11T12:30:55.843Z,60.00
2019-03-11T12:35:01.186Z,67.60
2019-03-11T12:39:07.262Z,71.00
2019-03-11T12:43:13.006Z,75.90
2019-03-11T12:47:17.995Z,80.90
2019-03-11T12:51:22.976Z,90.00
2019-03-11T12:55:27.963Z,94.10
2019-03-11T12:59:40.321Z,96.10
2019-03-11T13:03:39.538Z,97.00
2019-03-11T13:07:44.531Z,96.80
2019-03-11T13:11:50.143Z,96.30
2019-03-11T13:15:55.201Z,95.80
2019-03-11T13:20:00.278Z,94.50
2019-03-11T13:24:05.317Z,93.50
2019-03-11T13:28:10.293Z,92.60
2019-03-11T13:32:15.344Z,91.80
2019-03-11T13:36:20.358Z,91.40
2019-03-11T13:40:25.398Z,91.00
2019-03-11T13:44:30.414Z,92.50
2019-03-11T13:48:35.645Z,94.40
2019-03-11T13:52:40.740Z,94.40
2019-03-11T13:56:45.810Z,94.40
2019-03-11T14:00:56.847Z,93.80
2019-03-11T14:04:57.434Z,92.70
2019-03-11T14:09:02.422Z,91.20
2019-03-11T14:13:09.016Z,92.50
2019-03-11T14:17:14.011Z,92.20
2019-03-11T14:21:25.705Z,91.50
2019-03-11T14:25:25.585Z,89.00
2019-03-11T14:29:30.577Z,88.00
2019-03-11T14:33:35.621Z,87.80
2019-03-11T14:37:42.914Z,87.70
2019-03-11T14:41:49.115Z,91.40
2019-03-11T14:45:54.082Z,93.20
2019-03-11T14:49:59.129Z,93.00
2019-03-11T14:54:04.186Z,92.00
2019-03-11T14:58:09.258Z,91.50
2019-03-11T15:02:14.240Z,90.90
2019-03-11T15:06:19.234Z,90.40
2019-03-11T15:10:24.217Z,90.10
2019-03-11T15:14:29.437Z,90.10
2019-03-11T15:18:34.447Z,90.60
2019-03-11T15:22:40.432Z,90.90
2019-03-11T15:26:45.540Z,91.40
2019-03-11T15:30:50.691Z,91.20
2019-03-11T15:34:55.640Z,91.50
2019-03-11T15:39:00.634Z,92.60
2019-03-11T15:43:07.289Z,92.90
2019-03-11T15:47:13.359Z,92.80
2019-03-11T15:51:18.394Z,91.90
2019-03-11T15:55:23.388Z,91.20
2019-03-11T15:59:28.461Z,91.00
2019-03-11T16:03:36.485Z,90.40
2019-03-11T16:07:40.458Z,90.20
2019-03-11T16:11:45.471Z,90.70
2019-03-11T16:15:50.450Z,90.60
2019-03-11T16:19:55.445Z,90.60
2019-03-11T16:24:00.442Z,91.30
2019-03-11T16:28:05.655Z,91.70
2019-03-11T16:32:12.039Z,91.90
2019-03-11T16:36:17.170Z,92.40
2019-03-11T16:40:22.235Z,92.70
2019-03-11T16:44:27.294Z,92.80
2019-03-11T16:48:33.138Z,92.90
2019-03-11T16:52:38.973Z,93.30
2019-03-11T16:56:44.252Z,92.80
2019-03-11T17:00:51.389Z,93.30
2019-03-11T17:04:56.908Z,92.90
2019-03-11T17:09:02.664Z,92.70
2019-03-11T17:13:09.914Z,93.60
2019-03-11T17:17:15.540Z,94.50
2019-03-11T17:21:21.574Z,95.50
2019-03-11T17:25:26.765Z,96.20
2019-03-11T17:29:32.030Z,96.60
2019-03-11T17:33:37.844Z,96.80
2019-03-11T17:37:43.357Z,97.00
2019-03-11T17:41:48.607Z,97.40
2019-03-11T17:45:54.057Z,98.00
2019-03-11T17:49:59.624Z,98.50
2019-03-11T17:54:05.070Z,98.70
2019-03-11T17:58:10.672Z,99.10
2019-03-11T18:02:16.160Z,99.20
2019-03-11T18:06:21.422Z,99.50
2019-03-11T18:10:26.482Z,99.80
2019-03-11T18:14:31.479Z,99.60
2019-03-11T18:18:36.483Z,99.30
2019-03-11T18:22:41.511Z,99.30
2019-03-11T18:26:46.577Z,99.10
2019-03-11T18:30:51.881Z,98.80
2019-03-11T18:34:56.893Z,99.00
2019-03-11T18:39:01.918Z,99.00
2019-03-11T18:43:19.827Z,99.20
2019-03-11T18:47:15.165Z,99.20
2019-03-11T18:51:21.375Z,99.50
2019-03-11T18:55:28.299Z,99.60
2019-03-11T18:59:33.234Z,99.80
2019-03-11T19:03:38.306Z,99.90
2019-03-11T19:07:43.463Z,99.90
2019-03-11T19:11:48.505Z,99.90
2019-03-11T19:15:53.489Z,99.90
2019-03-11T19:19:59.908Z,99.90
2019-03-11T19:24:05.315Z,99.90
2019-03-11T19:28:10.479Z,99.90
2019-03-11T19:32:15.695Z,99.90
2019-03-11T19:36:20.695Z,99.90
2019-03-11T19:40:26.956Z,99.90
2019-03-11T19:44:32.501Z,99.90
2019-03-11T19:48:37.546Z,99.90
2019-03-11T19:52:42.586Z,99.90
2019-03-11T19:56:47.583Z,99.90
2019-03-11T20:00:52.553Z,99.90
2019-03-11T20:04:57.710Z,99.90
2019-03-11T20:09:03.863Z,99.90
2019-03-11T20:13:10.526Z,99.90
2019-03-11T20:17:17.483Z,99.90
2019-03-11T20:21:22.298Z,99.90
2019-03-11T20:25:32.428Z,99.90
2019-03-11T20:29:37.481Z,99.90
2019-03-11T20:33:42.439Z,99.90
2019-03-11T20:37:47.511Z,99.90
2019-03-11T20:41:52.493Z,99.90
2019-03-11T20:45:59.068Z,99.90
2019-03-11T20:50:06.243Z,99.90
2019-03-11T20:54:11.712Z,99.90
2019-03-11T20:58:16.775Z,99.90
2019-03-11T21:02:22.685Z,99.90
2019-03-11T21:06:27.907Z,99.90
2019-03-11T21:10:33.205Z,99.90
2019-03-11T21:14:38.180Z,99.90
2019-03-11T21:18:43.242Z,99.90
2019-03-11T21:22:48.495Z,99.90
2019-03-11T21:26:55.412Z,99.90
2019-03-11T21:31:01.598Z,99.90
2019-03-11T21:35:08.678Z,99.90
2019-03-11T21:39:17.823Z,99.90
2019-03-11T21:43:23.012Z,99.90
2019-03-11T21:47:28.007Z,99.90
2019-03-11T21:51:35.388Z,99.90
2019-03-11T21:55:40.871Z,99.90
2019-03-11T21:59:45.958Z,99.90
2019-03-11T22:03:51.181Z,99.90
2019-03-11T22:07:56.254Z,99.90
2019-03-11T22:12:01.351Z,99.90
2019-03-11T22:16:06.341Z,99.90
2019-03-11T22:20:13.975Z,99.90
2019-03-11T22:24:18.952Z,99.90
2019-03-11T22:28:23.934Z,99.90
2019-03-11T22:32:28.928Z,99.90
2019-03-11T22:36:34.006Z,99.90
2019-03-11T22:40:39.149Z,99.90
2019-03-11T22:44:44.150Z,99.90
2019-03-11T22:48:49.135Z,99.90
2019-03-11T22:52:54.136Z,99.90
2019-03-11T22:56:59.298Z,99.90
2019-03-11T23:01:04.622Z,99.90
2019-03-11T23:05:10.344Z,99.90
2019-03-11T23:09:15.341Z,99.90
2019-03-11T23:13:20.450Z,99.90
2019-03-11T23:17:27.054Z,99.90
2019-03-11T23:21:32.067Z,99.90
2019-03-11T23:25:37.061Z,99.90
2019-03-11T23:29:42.062Z,99.90
2019-03-11T23:33:47.094Z,99.90
2019-03-11T23:37:52.085Z,99.90
2019-03-11T23:41:57.087Z,99.90
2019-03-11T23:46:02.120Z,99.90
2019-03-11T23:50:12.277Z,99.90
2019-03-11T23:54:17.273Z,99.90
2019-03-11T23:58:22.369Z,99.90
